Time;durP1;ratioP1;P1;durP2;ratioP2;P2;SDS_P1;SDS_P2;PMS_P1;PMS_P2;Temp;Humidity;BMP_temperature;BMP_pressure;BME280_temperature;BME280_humidity;BME280_pressure;Samples;Min_cycle;Max_cycle;Signal;HPM_P1;HPM_P2
2024/01/20 00:00:19;;;;;;;10.90;7.87;;;;;21.20;101490.00;;;;2055858;28;20216;-58
2024/01/20 00:01:20;;;;;;;11.70;7.73;;;;;21.20;101477.00;;;;2045623;28;20216;-57
2024/01/20 00:02:20;;;;;;;11.23;8.00;;;;;21.20;101474.00;;;;2045530;28;20219;-59
2024/01/20 00:03:20;;;;;;;9.87;7.03;;;;;21.20;101469.00;;;;2035769;28;20711;-59
2024/01/20 00:04:21;;;;;;;11.90;8.10;;;;;21.10;101477.00;;;;2056148;28;20586;-57
2024/01/20 00:05:21;;;;;;;10.53;7.90;;;;;21.10;101468.00;;;;2046634;28;20221;-58
2024/01/20 00:06:22;;;;;;;12.50;7.03;;;;;21.10;101473.00;;;;2044015;28;20208;-57
2024/01/20 00:07:22;;;;;;;14.03;7.40;;;;;21.20;101476.00;;;;2045981;28;20247;-61
2024/01/20 00:08:22;;;;;;;10.87;6.77;;;;;21.20;101474.00;;;;2037585;28;20211;-59
2024/01/20 00:09:23;;;;;;;11.10;8.03;;;;;21.10;101473.00;;;;2056878;28;20281;-58
2024/01/20 00:10:23;;;;;;;10.60;7.17;;;;;21.10;101465.00;;;;2058933;28;20831;-57
2024/01/20 00:11:23;;;;;;;10.63;7.67;;;;;21.10;101456.00;;;;2048597;28;20772;-58
2024/01/20 00:12:24;;;;;;;10.00;7.60;;;;;21.20;101468.00;;;;2049653;28;20742;-58
2024/01/20 00:13:24;;;;;;;10.27;7.10;;;;;21.10;101470.00;;;;2061314;28;20684;-57
2024/01/20 00:14:24;;;;;;;9.93;7.03;;;;;21.10;101467.00;;;;2047311;28;20216;-57
2024/01/20 00:15:25;;;;;;;9.83;6.90;;;;;21.10;101465.00;;;;2054648;28;20215;-63
2024/01/20 00:16:25;;;;;;;10.83;7.20;;;;;21.10;101462.00;;;;2050177;28;20277;-59
2024/01/20 00:17:25;;;;;;;9.60;7.20;;;;;21.10;101470.00;;;;2035197;28;20216;-58
2024/01/20 00:18:26;;;;;;;8.93;7.47;;;;;21.10;101464.00;;;;2060795;28;20233;-57
2024/01/20 00:19:26;;;;;;;9.80;6.83;;;;;21.00;101461.00;;;;2061493;28;20202;-58
2024/01/20 00:20:26;;;;;;;12.80;7.93;;;;;21.00;101459.00;;;;2047847;28;20235;-60
2024/01/20 00:21:27;;;;;;;9.47;6.87;;;;;21.10;101464.00;;;;2049162;28;20211;-56
2024/01/20 00:22:27;;;;;;;8.33;6.80;;;;;21.00;101461.00;;;;2039344;28;20224;-62
2024/01/20 00:23:27;;;;;;;9.27;6.67;;;;;21.00;101466.00;;;;2038619;28;20686;-59
2024/01/20 00:24:29;;;;;;;9.90;5.97;;;;;21.10;101464.00;;;;2052609;28;20221;-57
2024/01/20 00:25:29;;;;;;;9.82;6.57;;;;;21.00;101465.00;;;;2057368;28;20254;-63
2024/01/20 00:26:29;;;;;;;8.40;6.20;;;;;21.00;101467.00;;;;2049642;28;20788;-61
2024/01/20 00:27:30;;;;;;;9.00;6.37;;;;;21.00;101457.00;;;;2041346;28;20223;-62
2024/01/20 00:28:30;;;;;;;9.17;6.70;;;;;21.00;101464.00;;;;2052104;28;20746;-58
2024/01/20 00:29:30;;;;;;;9.10;6.10;;;;;21.00;101464.00;;;;2052963;28;20432;-57
2024/01/20 00:30:31;;;;;;;9.90;6.07;;;;;21.00;101462.00;;;;2059626;28;20207;-57
2024/01/20 00:31:31;;;;;;;8.30;5.83;;;;;21.00;101466.00;;;;2049812;28;20238;-59
2024/01/20 00:32:32;;;;;;;11.10;6.00;;;;;21.00;101470.00;;;;2043250;28;20219;-61
2024/01/20 00:33:32;;;;;;;9.10;6.10;;;;;21.00;101460.00;;;;2052598;28;21075;-58
2024/01/20 00:34:32;;;;;;;7.43;5.70;;;;;21.00;101462.00;;;;2057443;28;20215;-58
2024/01/20 00:35:33;;;;;;;10.20;6.40;;;;;20.90;101461.00;;;;2061641;28;20211;-57
2024/01/20 00:36:33;;;;;;;7.73;5.77;;;;;20.90;101455.00;;;;2050723;28;20455;-63
2024/01/20 00:37:34;;;;;;;8.73;5.60;;;;;20.90;101460.00;;;;2037383;28;20243;-60
2024/01/20 00:38:38;;;;;;;7.57;5.10;;;;;20.90;101468.00;;;;2047287;28;20224;-61
2024/01/20 00:39:39;;;;;;;7.43;5.72;;;;;20.90;101463.00;;;;2060596;28;20302;-57
2024/01/20 00:40:39;;;;;;;8.60;6.17;;;;;20.90;101471.00;;;;2046006;28;20285;-58
2024/01/20 00:41:40;;;;;;;7.57;5.40;;;;;21.00;101472.00;;;;2051852;28;20220;-62
2024/01/20 00:42:40;;;;;;;7.77;5.60;;;;;20.90;101473.00;;;;2043684;28;20267;-61
2024/01/20 00:43:40;;;;;;;8.10;5.00;;;;;20.90;101465.00;;;;2056076;28;20218;-59
2024/01/20 00:44:41;;;;;;;7.73;5.20;;;;;20.90;101468.00;;;;2054382;28;20703;-58
2024/01/20 00:45:41;;;;;;;7.20;5.00;;;;;20.90;101468.00;;;;2049784;28;20350;-56
2024/01/20 00:46:42;;;;;;;8.03;5.43;;;;;20.80;101465.00;;;;2047972;28;20668;-62
2024/01/20 00:47:43;;;;;;;6.93;4.90;;;;;20.90;101473.00;;;;2045298;28;21396;-57
2024/01/20 00:48:44;;;;;;;6.28;4.60;;;;;20.80;101476.00;;;;2045029;28;20705;-57
2024/01/20 00:49:44;;;;;;;7.53;5.00;;;;;20.90;101478.00;;;;2048537;28;20296;-57
2024/01/20 00:50:44;;;;;;;9.27;5.80;;;;;20.90;101477.00;;;;2052945;28;20223;-61
2024/01/20 00:51:45;;;;;;;7.53;5.07;;;;;20.90;101472.00;;;;2049630;28;20249;-60
2024/01/20 00:52:45;;;;;;;8.70;5.60;;;;;20.90;101475.00;;;;2047854;28;20239;-58
2024/01/20 00:53:45;;;;;;;7.60;4.97;;;;;20.90;101470.00;;;;2054499;28;20227;-57
2024/01/20 00:54:46;;;;;;;6.30;4.77;;;;;20.80;101484.00;;;;2045906;28;20244;-56
2024/01/20 00:55:46;;;;;;;7.77;5.43;;;;;20.90;101478.00;;;;2042750;28;20220;-56
2024/01/20 00:56:47;;;;;;;6.70;4.57;;;;;19.80;101481.00;;;;2045611;28;20279;-62
2024/01/20 00:57:47;;;;;;;6.80;4.80;;;;;20.90;101479.00;;;;2048072;28;20227;-62
2024/01/20 00:58:47;;;;;;;6.73;5.13;;;;;20.80;101477.00;;;;2048859;28;20320;-59
2024/01/20 00:59:47;;;;;;;6.90;4.83;;;;;20.80;101489.00;;;;2052425;28;20212;-58
2024/01/20 01:00:48;;;;;;;7.57;5.03;;;;;20.90;101491.00;;;;2051478;28;20223;-58
2024/01/20 01:01:48;;;;;;;5.90;4.23;;;;;20.80;101484.00;;;;2053141;28;20247;-57
2024/01/20 01:02:48;;;;;;;7.13;4.60;;;;;20.80;101488.00;;;;2043842;28;20578;-57
2024/01/20 01:03:49;;;;;;;5.60;4.20;;;;;20.90;101490.00;;;;2057297;28;20640;-58
2024/01/20 01:04:49;;;;;;;6.90;5.13;;;;;20.80;101489.00;;;;2048796;28;20610;-63
2024/01/20 01:05:49;;;;;;;7.93;4.90;;;;;20.80;101488.00;;;;2053129;28;20623;-61
2024/01/20 01:06:50;;;;;;;6.70;4.50;;;;;20.80;101486.00;;;;2048079;28;21503;-60
2024/01/20 01:07:50;;;;;;;7.03;4.70;;;;;20.80;101494.00;;;;2028652;28;20237;-59
2024/01/20 01:08:50;;;;;;;6.80;4.93;;;;;20.80;101488.00;;;;2043871;28;20212;-60
2024/01/20 01:09:51;;;;;;;6.63;4.90;;;;;20.80;101489.00;;;;2049325;28;20224;-60
2024/01/20 01:10:54;;;;;;;7.90;4.70;;;;;20.80;101488.00;;;;2045438;28;20220;-62
2024/01/20 01:11:54;;;;;;;7.30;4.60;;;;;20.80;101493.00;;;;2054722;28;20222;-59
2024/01/20 01:12:55;;;;;;;6.70;4.60;;;;;20.70;101489.00;;;;2042919;28;20223;-57
2024/01/20 01:13:55;;;;;;;7.20;4.10;;;;;20.70;101491.00;;;;2043406;28;20658;-58
2024/01/20 01:14:55;;;;;;;6.90;4.80;;;;;20.80;101495.00;;;;2047943;28;20212;-58
2024/01/20 01:15:56;;;;;;;6.00;4.43;;;;;20.80;101492.00;;;;2043669;28;20212;-62
2024/01/20 01:16:56;;;;;;;7.37;5.17;;;;;20.70;101495.00;;;;2048878;28;20223;-59
2024/01/20 01:17:56;;;;;;;6.43;4.80;;;;;20.70;101494.00;;;;2039564;28;20254;-60
2024/01/20 01:18:57;;;;;;;7.10;4.23;;;;;20.70;101492.00;;;;2049525;28;20216;-57
2024/01/20 01:19:57;;;;;;;6.70;4.77;;;;;20.70;101493.00;;;;2059341;28;20211;-59
2024/01/20 01:20:57;;;;;;;6.70;4.27;;;;;20.70;101493.00;;;;2049697;28;20215;-59
2024/01/20 01:21:58;;;;;;;7.20;4.40;;;;;20.70;101497.00;;;;2050584;28;20212;-58
2024/01/20 01:22:59;;;;;;;6.20;4.20;;;;;20.70;101503.00;;;;2042027;28;20227;-61
2024/01/20 01:23:59;;;;;;;6.90;3.87;;;;;20.70;101500.00;;;;2045398;28;20218;-57
2024/01/20 01:24:59;;;;;;;9.70;4.90;;;;;20.70;101502.00;;;;2052631;28;20215;-58
2024/01/20 01:26:00;;;;;;;5.43;4.10;;;;;20.60;101500.00;;;;2050596;28;20247;-58
2024/01/20 01:27:00;;;;;;;6.03;4.33;;;;;20.70;101506.00;;;;2061541;28;20214;-58
2024/01/20 01:28:01;;;;;;;7.60;4.57;;;;;20.70;101502.00;;;;2041603;28;20224;-61
2024/01/20 01:29:01;;;;;;;6.10;4.20;;;;;20.70;101497.00;;;;2052028;28;20211;-58
2024/01/20 01:30:02;;;;;;;5.40;3.90;;;;;20.60;101498.00;;;;2045787;28;20224;-60
2024/01/20 01:31:02;;;;;;;6.33;4.30;;;;;20.60;101500.00;;;;2050478;28;20212;-57
2024/01/20 01:32:03;;;;;;;5.80;4.10;;;;;20.60;101500.00;;;;2053419;28;20913;-63
2024/01/20 01:33:03;;;;;;;7.27;4.40;;;;;20.60;101494.00;;;;2037061;28;20217;-59
2024/01/20 01:34:03;;;;;;;5.47;4.27;;;;;20.60;101494.00;;;;2045803;28;20220;-58
2024/01/20 01:35:04;;;;;;;7.00;4.43;;;;;20.60;101503.00;;;;2046743;28;20216;-59
2024/01/20 01:36:05;;;;;;;6.90;4.87;;;;;20.60;101515.00;;;;2050051;28;20231;-58
2024/01/20 01:37:05;;;;;;;6.70;4.03;;;;;20.60;101494.00;;;;2050583;28;20212;-60
2024/01/20 01:38:06;;;;;;;6.53;4.10;;;;;20.60;101507.00;;;;2040665;28;20470;-58
2024/01/20 01:39:06;;;;;;;5.80;4.20;;;;;20.60;101502.00;;;;2053000;28;20677;-60
2024/01/20 01:40:07;;;;;;;5.60;3.80;;;;;20.60;101497.00;;;;2046584;28;20215;-60
2024/01/20 01:41:07;;;;;;;5.37;3.90;;;;;20.60;101492.00;;;;2045807;28;20232;-60
2024/01/20 01:42:07;;;;;;;5.30;4.03;;;;;20.60;101494.00;;;;2045481;28;20464;-61
2024/01/20 01:43:08;;;;;;;6.80;4.03;;;;;20.60;101495.00;;;;2035221;28;20223;-60
2024/01/20 01:44:08;;;;;;;5.07;3.70;;;;;20.60;101500.00;;;;2042085;28;20219;-63
2024/01/20 01:45:09;;;;;;;5.43;4.00;;;;;20.60;101495.00;;;;2043235;28;20212;-58
2024/01/20 01:46:10;;;;;;;5.90;4.00;;;;;20.60;101494.00;;;;2046764;28;20216;-59
2024/01/20 01:47:10;;;;;;;5.50;4.13;;;;;20.60;101494.00;;;;2042196;28;20861;-60
2024/01/20 01:48:10;;;;;;;6.60;3.57;;;;;20.60;101490.00;;;;2021448;29;20646;-61
2024/01/20 01:49:11;;;;;;;6.70;3.90;;;;;20.60;101498.00;;;;2043823;28;22048;-58
2024/01/20 01:50:11;;;;;;;5.83;3.93;;;;;20.50;101502.00;;;;2045563;28;20731;-60
2024/01/20 01:51:14;;;;;;;6.27;4.03;;;;;20.60;101494.00;;;;2048767;28;20343;-58
2024/01/20 01:52:14;;;;;;;6.00;4.20;;;;;20.60;101496.00;;;;2044079;28;20660;-60
2024/01/20 01:53:15;;;;;;;5.83;4.07;;;;;20.60;101500.00;;;;2047403;28;20304;-63
2024/01/20 01:54:15;;;;;;;7.87;4.20;;;;;20.60;101512.00;;;;2047868;28;20239;-58
2024/01/20 01:55:15;;;;;;;5.07;3.13;;;;;20.60;101507.00;;;;2044234;28;20236;-57
2024/01/20 01:56:16;;;;;;;5.93;3.27;;;;;20.60;101507.00;;;;2043750;28;20286;-62
2024/01/20 01:57:16;;;;;;;5.50;3.77;;;;;20.60;101496.00;;;;2045594;28;20235;-59
2024/01/20 01:58:17;;;;;;;4.80;3.70;;;;;20.60;101496.00;;;;2035185;28;20253;-58
2024/01/20 01:59:17;;;;;;;5.23;3.87;;;;;20.50;101508.00;;;;2038606;29;20220;-59
2024/01/20 02:00:18;;;;;;;5.20;3.53;;;;;20.50;101510.00;;;;2047025;28;20246;-57
2024/01/20 02:01:18;;;;;;;4.77;3.50;;;;;20.50;101496.00;;;;2052118;28;20257;-63
2024/01/20 02:02:18;;;;;;;5.00;3.40;;;;;20.50;101506.00;;;;2048910;28;20281;-61
2024/01/20 02:03:19;;;;;;;4.33;3.17;;;;;20.50;101434.00;;;;2033965;28;20224;-60
2024/01/20 02:04:19;;;;;;;4.60;3.30;;;;;20.50;101512.00;;;;2047425;28;20254;-62
2024/01/20 02:05:19;;;;;;;5.23;3.00;;;;;20.50;101514.00;;;;2044087;28;20656;-58
2024/01/20 02:06:20;;;;;;;5.73;3.83;;;;;20.50;101508.00;;;;2045367;28;20286;-58
2024/01/20 02:07:20;;;;;;;5.30;3.50;;;;;20.50;101510.00;;;;2050572;28;20246;-63
2024/01/20 02:08:23;;;;;;;6.07;3.50;;;;;20.50;101502.00;;;;2034806;28;20228;-59
2024/01/20 02:09:23;;;;;;;5.63;3.70;;;;;20.50;101515.00;;;;2045188;28;20220;-59
2024/01/20 02:10:24;;;;;;;4.87;3.43;;;;;20.50;101513.00;;;;2043044;28;20702;-58
2024/01/20 02:11:24;;;;;;;6.30;3.23;;;;;20.50;101517.00;;;;2045091;28;20225;-58
2024/01/20 02:12:24;;;;;;;5.63;3.77;;;;;20.50;101511.00;;;;2039201;28;20215;-59
2024/01/20 02:13:25;;;;;;;5.10;3.50;;;;;20.50;101519.00;;;;2051120;28;20219;-61
2024/01/20 02:14:25;;;;;;;5.23;3.20;;;;;20.50;101519.00;;;;2043806;28;20247;-60
2024/01/20 02:15:26;;;;;;;4.83;3.20;;;;;20.50;101503.00;;;;2038184;28;20221;-58
2024/01/20 02:16:26;;;;;;;5.60;3.80;;;;;20.40;101528.00;;;;2048924;28;20227;-57
2024/01/20 02:17:26;;;;;;;6.20;3.63;;;;;20.50;101517.00;;;;2035359;28;20231;-56
2024/01/20 02:18:27;;;;;;;4.10;3.00;;;;;20.50;101523.00;;;;2049147;28;20243;-57
2024/01/20 02:19:27;;;;;;;6.40;4.00;;;;;20.50;101522.00;;;;2046954;28;20226;-59
2024/01/20 02:20:28;;;;;;;5.67;3.83;;;;;20.50;101523.00;;;;2046987;28;20235;-59
2024/01/20 02:21:28;;;;;;;6.60;4.00;;;;;20.50;101521.00;;;;2046975;28;20267;-57
2024/01/20 02:22:29;;;;;;;6.33;4.10;;;;;20.40;101530.00;;;;2038167;28;20220;-58
2024/01/20 02:23:29;;;;;;;4.67;3.57;;;;;20.40;101395.00;;;;2046514;28;20807;-57
2024/01/20 02:24:29;;;;;;;5.43;4.07;;;;;20.50;101526.00;;;;2037008;28;20619;-62
2024/01/20 02:25:30;;;;;;;4.70;3.50;;;;;20.40;101530.00;;;;2028870;29;20638;-60
2024/01/20 02:26:30;;;;;;;6.23;4.23;;;;;20.40;101535.00;;;;2043897;28;20681;-59
2024/01/20 02:27:30;;;;;;;5.77;3.60;;;;;20.40;101536.00;;;;2035102;28;20682;-58
2024/01/20 02:28:31;;;;;;;4.67;3.50;;;;;20.40;101535.00;;;;2049259;28;20930;-57
2024/01/20 02:29:31;;;;;;;6.87;4.03;;;;;20.40;101539.00;;;;2050012;28;20793;-58
2024/01/20 02:30:31;;;;;;;4.40;3.07;;;;;20.40;101526.00;;;;2048780;28;20254;-57
2024/01/20 02:31:32;;;;;;;5.00;3.40;;;;;20.40;101537.00;;;;2044996;28;20228;-61
2024/01/20 02:32:32;;;;;;;5.63;3.40;;;;;20.40;101533.00;;;;2038394;28;20328;-59
2024/01/20 02:33:32;;;;;;;4.30;3.50;;;;;20.40;101540.00;;;;2045555;28;20235;-60
2024/01/20 02:34:33;;;;;;;5.00;3.37;;;;;20.30;101538.00;;;;2057536;28;20218;-60
2024/01/20 02:35:33;;;;;;;5.23;3.40;;;;;20.40;101539.00;;;;2051544;28;20247;-59
2024/01/20 02:36:33;;;;;;;5.87;4.00;;;;;20.40;101532.00;;;;2051665;28;20224;-58
2024/01/20 02:37:34;;;;;;;4.93;3.03;;;;;20.30;101526.00;;;;2043477;28;20335;-57
2024/01/20 02:38:34;;;;;;;6.03;3.73;;;;;20.40;101537.00;;;;2051623;28;20224;-62
2024/01/20 02:39:34;;;;;;;5.03;3.43;;;;;20.40;101536.00;;;;2053338;28;20219;-60
2024/01/20 02:40:35;;;;;;;5.30;3.53;;;;;20.40;101538.00;;;;2052880;28;20226;-60
2024/01/20 02:41:35;;;;;;;4.23;3.10;;;;;20.40;101543.00;;;;2053577;28;20685;-58
2024/01/20 02:42:35;;;;;;;5.60;3.30;;;;;20.30;101533.00;;;;2035538;28;20220;-58
2024/01/20 02:43:36;;;;;;;4.07;3.23;;;;;20.30;101538.00;;;;2050551;28;20227;-58
2024/01/20 02:44:37;;;;;;;4.30;3.13;;;;;20.30;101534.00;;;;2052966;28;20221;-57
2024/01/20 02:45:37;;;;;;;4.47;3.33;;;;;20.40;101540.00;;;;2043733;28;20266;-58
2024/01/20 02:46:38;;;;;;;4.30;3.10;;;;;20.30;101538.00;;;;2043221;28;20224;-58
2024/01/20 02:47:38;;;;;;;5.37;3.20;;;;;20.30;101541.00;;;;2041517;28;20230;-61
2024/01/20 02:48:38;;;;;;;5.13;3.40;;;;;20.30;101545.00;;;;2053158;28;20778;-58
2024/01/20 02:49:39;;;;;;;5.20;2.97;;;;;20.30;101541.00;;;;2051315;28;20238;-62
2024/01/20 02:50:39;;;;;;;4.43;2.67;;;;;20.30;101555.00;;;;2052353;28;20215;-60
2024/01/20 02:51:39;;;;;;;5.03;3.37;;;;;20.30;101543.00;;;;2047868;28;20212;-59
2024/01/20 02:52:40;;;;;;;5.03;3.50;;;;;20.30;101552.00;;;;2039250;28;20230;-60
2024/01/20 02:53:40;;;;;;;4.10;3.00;;;;;20.30;101547.00;;;;2045338;28;20223;-59
2024/01/20 02:54:40;;;;;;;5.00;3.33;;;;;20.30;101544.00;;;;2052774;28;20217;-57
2024/01/20 02:55:40;;;;;;;4.37;2.90;;;;;20.20;101541.00;;;;2051113;28;20207;-58
2024/01/20 02:56:41;;;;;;;4.80;3.47;;;;;20.20;101554.00;;;;2056768;28;20253;-56
2024/01/20 02:57:41;;;;;;;5.53;3.37;;;;;20.30;101552.00;;;;2040560;28;20220;-62
2024/01/20 02:58:41;;;;;;;4.50;3.10;;;;;20.30;101549.00;;;;2056503;28;20313;-60
2024/01/20 02:59:42;;;;;;;4.30;3.33;;;;;20.30;101558.00;;;;2055640;28;20195;-58
2024/01/20 03:00:42;;;;;;;4.27;2.77;;;;;20.30;101589.00;;;;2056187;28;20568;-59
2024/01/20 03:01:42;;;;;;;5.30;3.37;;;;;20.30;101556.00;;;;2049393;28;20760;-57
2024/01/20 03:02:43;;;;;;;5.30;3.97;;;;;20.30;101557.00;;;;2036753;28;20236;-57
2024/01/20 03:03:45;;;;;;;5.50;3.30;;;;;20.20;101373.00;;;;2048243;28;20219;-58
2024/01/20 03:04:45;;;;;;;4.75;3.38;;;;;20.30;101551.00;;;;2052129;28;20290;-59
2024/01/20 03:05:45;;;;;;;5.70;3.10;;;;;20.20;101552.00;;;;2046313;28;20266;-57
2024/01/20 03:06:45;;;;;;;5.93;3.40;;;;;20.20;101554.00;;;;2047036;28;20216;-62
2024/01/20 03:07:46;;;;;;;4.80;2.90;;;;;20.30;101543.00;;;;2043439;28;20259;-60
2024/01/20 03:08:46;;;;;;;5.80;3.43;;;;;20.30;101545.00;;;;2052507;28;20220;-59
2024/01/20 03:09:46;;;;;;;4.70;3.10;;;;;20.30;101547.00;;;;2051759;28;20226;-58
2024/01/20 03:10:47;;;;;;;4.67;3.10;;;;;20.30;101546.00;;;;2052632;28;20235;-57
2024/01/20 03:11:47;;;;;;;5.90;3.20;;;;;20.20;101548.00;;;;2051306;28;20235;-58
2024/01/20 03:12:47;;;;;;;4.20;3.10;;;;;20.20;101550.00;;;;2036401;28;20224;-58
2024/01/20 03:13:48;;;;;;;4.20;3.10;;;;;20.20;101541.00;;;;2045423;28;20211;-61
2024/01/20 03:14:48;;;;;;;4.10;3.30;;;;;20.20;101547.00;;;;2052576;28;20207;-61
2024/01/20 03:15:48;;;;;;;4.50;3.33;;;;;20.20;101549.00;;;;2046470;28;20212;-61
2024/01/20 03:16:49;;;;;;;4.13;3.17;;;;;20.20;101551.00;;;;2051995;28;20226;-62
2024/01/20 03:17:49;;;;;;;5.83;3.27;;;;;20.20;101549.00;;;;2043092;28;20255;-60
2024/01/20 03:18:49;;;;;;;6.37;3.83;;;;;20.20;101544.00;;;;2052099;28;20715;-57
2024/01/20 03:19:50;;;;;;;4.00;3.20;;;;;20.20;101556.00;;;;2059578;28;20222;-59
2024/01/20 03:20:50;;;;;;;4.47;3.30;;;;;20.20;101541.00;;;;2049103;28;20956;-62
2024/01/20 03:21:50;;;;;;;4.67;3.17;;;;;20.30;101547.00;;;;2052751;28;20695;-62
2024/01/20 03:22:51;;;;;;;4.63;3.60;;;;;20.20;101550.00;;;;2042357;28;20219;-58
2024/01/20 03:23:53;;;;;;;5.10;3.60;;;;;20.20;101542.00;;;;2050118;28;20219;-58
2024/01/20 03:24:54;;;;;;;4.28;2.95;;;;;20.20;101546.00;;;;2045532;28;20235;-59
2024/01/20 03:25:54;;;;;;;5.00;3.47;;;;;20.20;101554.00;;;;2050274;28;20223;-58
2024/01/20 03:26:55;;;;;;;5.33;3.53;;;;;20.20;101547.00;;;;2052808;28;20222;-58
2024/01/20 03:27:56;;;;;;;4.40;2.80;;;;;20.20;101543.00;;;;2040221;28;20814;-58
2024/01/20 03:28:56;;;;;;;5.70;3.23;;;;;20.10;101553.00;;;;2055049;28;20226;-56
2024/01/20 03:29:56;;;;;;;5.30;3.17;;;;;20.20;101552.00;;;;2051100;28;20594;-58
2024/01/20 03:30:57;;;;;;;5.00;3.70;;;;;20.20;101552.00;;;;2051765;28;20220;-57
2024/01/20 03:31:57;;;;;;;5.30;3.50;;;;;20.10;101554.00;;;;2052149;28;20222;-60
2024/01/20 03:32:57;;;;;;;4.20;2.57;;;;;20.20;101555.00;;;;2039909;28;20227;-59
2024/01/20 03:33:58;;;;;;;4.10;2.70;;;;;20.20;101552.00;;;;2050981;28;20231;-63
2024/01/20 03:34:58;;;;;;;5.57;3.40;;;;;20.10;101546.00;;;;2046967;28;20220;-60
2024/01/20 03:35:59;;;;;;;4.27;3.50;;;;;20.10;101552.00;;;;2037061;29;20239;-62
2024/01/20 03:36:59;;;;;;;3.90;2.93;;;;;20.20;101559.00;;;;2046611;28;20260;-58
2024/01/20 03:37:59;;;;;;;5.60;3.63;;;;;20.20;101556.00;;;;2040215;28;20241;-61
2024/01/20 03:38:59;;;;;;;5.03;2.80;;;;;20.10;101545.00;;;;2050617;28;20214;-60
2024/01/20 03:40:00;;;;;;;4.00;2.73;;;;;20.10;101546.00;;;;2051377;28;20208;-58
2024/01/20 03:41:00;;;;;;;4.73;3.10;;;;;20.20;101552.00;;;;2050144;28;20234;-57
2024/01/20 03:42:01;;;;;;;3.77;2.93;;;;;20.10;101558.00;;;;2047287;28;20222;-59
2024/01/20 03:43:01;;;;;;;5.00;3.00;;;;;20.10;101555.00;;;;2040785;28;20212;-58
2024/01/20 03:44:01;;;;;;;4.63;3.30;;;;;20.10;101561.00;;;;2049881;28;20298;-62
2024/01/20 03:45:02;;;;;;;4.40;2.67;;;;;20.10;101547.00;;;;2044454;28;20216;-62
2024/01/20 03:46:02;;;;;;;5.10;3.30;;;;;20.10;101555.00;;;;2051986;28;20286;-59
2024/01/20 03:47:03;;;;;;;5.50;3.77;;;;;20.10;101552.00;;;;2047478;28;20628;-57
2024/01/20 03:48:03;;;;;;;4.23;2.93;;;;;20.10;101553.00;;;;2043619;28;20221;-59
2024/01/20 03:49:04;;;;;;;5.47;3.70;;;;;20.10;101552.00;;;;2054577;28;20658;-60
2024/01/20 03:50:06;;;;;;;4.97;2.97;;;;;20.10;101552.00;;;;2049085;28;20224;-60
2024/01/20 03:51:06;;;;;;;5.25;3.30;;;;;20.10;101554.00;;;;2046795;28;20208;-59
2024/01/20 03:52:07;;;;;;;4.43;3.27;;;;;20.10;101557.00;;;;2043915;28;20299;-61
2024/01/20 03:53:07;;;;;;;4.30;3.30;;;;;20.10;101558.00;;;;2039011;28;20212;-58
2024/01/20 03:54:08;;;;;;;5.37;3.00;;;;;20.10;101558.00;;;;2045992;28;20243;-58
2024/01/20 03:55:09;;;;;;;3.70;2.80;;;;;20.10;101548.00;;;;2044254;28;20263;-58
2024/01/20 03:56:09;;;;;;;4.23;3.20;;;;;20.00;101566.00;;;;2042802;28;20665;-58
2024/01/20 03:57:10;;;;;;;4.53;3.13;;;;;20.00;101556.00;;;;2052744;28;20627;-59
2024/01/20 03:58:11;;;;;;;5.17;3.13;;;;;20.10;101557.00;;;;2047015;28;20222;-59
2024/01/20 03:59:11;;;;;;;5.33;3.60;;;;;20.10;101558.00;;;;2044634;28;20208;-60
2024/01/20 04:00:12;;;;;;;4.10;3.10;;;;;20.10;101555.00;;;;2054015;28;20518;-59
2024/01/20 04:01:12;;;;;;;4.50;2.70;;;;;20.10;101555.00;;;;2053826;28;20371;-58
2024/01/20 04:02:12;;;;;;;4.50;3.40;;;;;20.10;101556.00;;;;2050732;28;20257;-62
2024/01/20 04:03:13;;;;;;;4.80;2.93;;;;;20.00;101559.00;;;;2025851;28;20212;-61
2024/01/20 04:04:13;;;;;;;4.03;2.67;;;;;20.00;101551.00;;;;2046627;28;20241;-60
2024/01/20 04:05:13;;;;;;;4.60;3.43;;;;;20.00;101551.00;;;;2050703;28;20604;-59
2024/01/20 04:06:14;;;;;;;5.00;3.10;;;;;20.00;101543.00;;;;2046483;28;20224;-57
2024/01/20 04:07:15;;;;;;;4.33;2.90;;;;;20.00;101557.00;;;;2049854;28;20248;-59
2024/01/20 04:08:15;;;;;;;5.00;2.93;;;;;20.00;101559.00;;;;2033791;28;20295;-61
2024/01/20 04:09:15;;;;;;;4.67;3.40;;;;;20.00;101560.00;;;;2048992;28;20207;-58
2024/01/20 04:10:16;;;;;;;5.27;3.37;;;;;20.00;101560.00;;;;2060581;28;20614;-59
2024/01/20 04:11:16;;;;;;;4.87;3.57;;;;;20.00;101565.00;;;;2056047;28;20687;-59
2024/01/20 04:12:17;;;;;;;4.47;3.20;;;;;20.00;101621.00;;;;2043761;28;21043;-58
2024/01/20 04:13:18;;;;;;;4.27;2.83;;;;;20.00;101570.00;;;;2032702;28;21080;-58
2024/01/20 04:14:18;;;;;;;7.37;3.10;;;;;20.00;101576.00;;;;2056132;28;20462;-61
2024/01/20 04:15:18;;;;;;;4.33;3.03;;;;;20.00;101572.00;;;;2053227;28;20207;-59
2024/01/20 04:16:18;;;;;;;5.03;3.00;;;;;20.00;101577.00;;;;2056507;28;20212;-59
2024/01/20 04:17:19;;;;;;;5.53;3.17;;;;;20.00;101577.00;;;;2059998;28;20234;-60
2024/01/20 04:18:19;;;;;;;4.30;2.97;;;;;20.00;101580.00;;;;2040300;28;20310;-62
2024/01/20 04:19:19;;;;;;;4.03;2.90;;;;;20.10;101571.00;;;;2052520;28;20211;-59
2024/01/20 04:20:20;;;;;;;4.43;3.13;;;;;20.00;101572.00;;;;2054981;28;20216;-57
2024/01/20 04:21:21;;;;;;;4.20;2.60;;;;;20.00;101577.00;;;;2050256;28;20215;-59
2024/01/20 04:22:22;;;;;;;4.40;3.10;;;;;20.00;101574.00;;;;2052412;28;20258;-59
2024/01/20 04:23:22;;;;;;;4.30;2.80;;;;;20.00;101581.00;;;;2038576;28;20216;-59
2024/01/20 04:24:22;;;;;;;4.40;2.70;;;;;20.00;101583.00;;;;2052663;28;20214;-62
2024/01/20 04:25:23;;;;;;;4.57;3.07;;;;;20.00;101587.00;;;;2049557;28;20216;-60
2024/01/20 04:26:23;;;;;;;4.47;3.23;;;;;20.00;101587.00;;;;2049641;28;20205;-58
2024/01/20 04:27:23;;;;;;;5.07;3.27;;;;;20.00;101583.00;;;;2047284;28;20235;-58
2024/01/20 04:28:24;;;;;;;3.63;2.73;;;;;20.00;101601.00;;;;2054828;28;20302;-61
2024/01/20 04:29:24;;;;;;;4.27;2.87;;;;;20.00;101598.00;;;;2048429;28;20231;-59
2024/01/20 04:30:24;;;;;;;4.97;2.90;;;;;20.00;101604.00;;;;2053380;28;20347;-59
2024/01/20 04:31:25;;;;;;;4.30;3.00;;;;;20.00;101603.00;;;;2046574;28;20255;-58
2024/01/20 04:32:25;;;;;;;4.87;3.60;;;;;20.00;101608.00;;;;2038972;28;20205;-60
2024/01/20 04:33:25;;;;;;;4.80;3.23;;;;;20.00;101607.00;;;;2039043;28;20228;-57
2024/01/20 04:34:26;;;;;;;4.40;2.90;;;;;19.90;101599.00;;;;2043926;28;20211;-58
2024/01/20 04:35:26;;;;;;;4.40;3.30;;;;;20.00;101600.00;;;;2049398;28;20208;-62
2024/01/20 04:36:26;;;;;;;5.73;3.57;;;;;19.90;101600.00;;;;2047188;28;20222;-61
2024/01/20 04:37:27;;;;;;;3.73;2.77;;;;;19.90;101609.00;;;;2043457;28;20211;-59
2024/01/20 04:38:27;;;;;;;3.93;2.83;;;;;19.90;101604.00;;;;2046493;28;20306;-59
2024/01/20 04:39:27;;;;;;;4.57;2.90;;;;;19.90;101604.00;;;;2053699;28;20275;-57
2024/01/20 04:40:28;;;;;;;4.83;3.00;;;;;19.90;101597.00;;;;2049371;28;20205;-58
2024/01/20 04:41:28;;;;;;;5.40;3.47;;;;;19.90;101606.00;;;;2043318;28;20224;-57
2024/01/20 04:42:28;;;;;;;4.37;3.00;;;;;19.90;101599.00;;;;2036691;28;20307;-58
2024/01/20 04:43:29;;;;;;;4.27;3.03;;;;;19.90;101602.00;;;;2046254;28;20212;-60
2024/01/20 04:44:29;;;;;;;3.70;2.77;;;;;19.90;101605.00;;;;2049316;28;20849;-61
2024/01/20 04:45:29;;;;;;;5.53;3.40;;;;;19.90;101605.00;;;;2047854;28;20230;-56
2024/01/20 04:46:30;;;;;;;4.50;3.13;;;;;19.90;101605.00;;;;2049632;28;20216;-58
2024/01/20 04:47:32;;;;;;;4.10;2.83;;;;;19.90;101601.00;;;;2035684;28;20219;-58
2024/01/20 04:48:32;;;;;;;4.25;3.25;;;;;19.90;101602.00;;;;2052153;28;20239;-62
2024/01/20 04:49:32;;;;;;;3.90;2.37;;;;;19.90;101605.00;;;;2048705;28;20227;-61
2024/01/20 04:50:33;;;;;;;3.97;2.90;;;;;19.90;101457.00;;;;2048651;28;20254;-59
2024/01/20 04:51:33;;;;;;;4.80;3.07;;;;;19.90;101603.00;;;;2036842;29;20229;-61
2024/01/20 04:52:33;;;;;;;4.73;3.30;;;;;19.90;101598.00;;;;2029403;29;20238;-59
2024/01/20 04:53:34;;;;;;;4.40;2.87;;;;;19.90;101614.00;;;;2048384;28;20227;-59
2024/01/20 04:54:35;;;;;;;4.63;3.00;;;;;19.90;101612.00;;;;2048439;28;20220;-57
2024/01/20 04:55:35;;;;;;;4.13;2.83;;;;;19.90;101612.00;;;;2049066;28;20704;-56
2024/01/20 04:56:35;;;;;;;3.67;2.90;;;;;19.80;101608.00;;;;2047406;28;20278;-62
2024/01/20 04:57:36;;;;;;;5.07;3.10;;;;;19.90;101609.00;;;;2040381;28;20268;-62
2024/01/20 04:58:36;;;;;;;3.83;3.00;;;;;19.90;101605.00;;;;2052993;28;20235;-59